Ridgebury Captain Dr — V7FF4 — position and weather

sailwx.info

Track history (hours):
 
Tides and Currents Weather Stations Pressure Air Temp Water Temp Dewpoint Dewpoint Depression Visibility Wind Speed Wind Dir Waves Ship Positions

Ridgebury Captain Dr

Last reported at 2018-Jan-09 00:18 UTC. Time now 2018-Jan-22 20:30 UTC.
Position N 08°11' W 016°56'.
Warning: this ship's position is 13 days out of date.

Length 284 m; draft 9.3 m.

Type: Ship. MMSI: 538005588.

Date/timePositionNaut miles runAvg speedWind from/ knotsBaromVisibWave heightAir tempDewpointWater temp
2018-Jan-09 00:18N 08°11' W 016°56'3114.0
2018-Jan-08 22:05N 08°32' W 017°19'214.0
2018-Jan-08 21:56N 08°33' W 017°21'3213.8
2018-Jan-08 19:36N 08°54' W 017°46'313.4
2018-Jan-08 19:23N 08°56' W 017°48'512.9
2018-Jan-08 19:00N 09°00' W 017°51'1213.9
2018-Jan-08 18:09N 09°11' W 017°56'413.9
2018-Jan-08 17:54N 09°14' W 017°57'613.9
2018-Jan-08 17:30N 09°19' W 017°59'713.6
2018-Jan-08 17:00N 09°25' W 018°02'2613.9
2018-Jan-08 15:07N 09°50' W 018°13'413.9
2018-Jan-08 14:51N 09°53' W 018°14'513.8
2018-Jan-08 14:30N 09°57' W 018°16'1913.8
2018-Jan-08 13:07N 10°15' W 018°24'413.4
2018-Jan-08 12:50N 10°18' W 018°25'  
2018-Jan-05 08:43N 27°07' W 015°31'414.4
2018-Jan-05 08:28N 27°10' W 015°28'2114.5
2018-Jan-05 07:03N 27°27' W 015°16'114.8
2018-Jan-05 07:00N 27°27' W 015°16'714.9
2018-Jan-05 06:30N 27°34' W 015°13'714.4
2018-Jan-05 06:00N 27°41' W 015°10'714.3
2018-Jan-05 05:31N 27°48' W 015°08'714.8
2018-Jan-05 05:01N 27°55' W 015°05'714.6
2018-Jan-05 04:31N 28°02' W 015°02'714.4
2018-Jan-05 04:01N 28°09' W 014°60'714.3
2018-Jan-05 03:30N 28°16' W 014°57'713.8
2018-Jan-05 03:00N 28°22' W 014°55'714.2
2018-Jan-05 02:31N 28°29' W 014°54'714.7
2018-Jan-05 02:01N 28°36' W 014°53'714.4
2018-Jan-05 01:30N 28°44' W 014°52'714.4
2018-Jan-05 01:01N 28°51' W 014°51'714.2
2018-Jan-05 00:31N 28°58' W 014°51'714.2
2018-Jan-05 00:00N 29°05' W 014°50'714.3
2018-Jan-04 23:30N 29°12' W 014°49'714.5
2018-Jan-04 23:01N 29°19' W 014°48'714.5
2018-Jan-04 22:30N 29°27' W 014°47'30914.2
2018-Jan-04 00:45N 34°25' W 013°14'414.1
2018-Jan-04 00:30N 34°28' W 013°13'714.3
2018-Jan-04 00:00N 34°35' W 013°10'914.2
2018-Jan-03 23:23N 34°43' W 013°07'  
2017-Dec-30 09:49N 49°19' W 004°44'2 5.4
2017-Dec-30 09:25N 49°20' W 004°41'3 5.6
2017-Dec-30 08:56N 49°22' W 004°37'6 5.9
2017-Dec-30 07:59N 49°25' W 004°30'3 6.4
2017-Dec-30 07:29N 49°26' W 004°25'3 6.2
2017-Dec-30 06:59N 49°28' W 004°21'16 4.9
2017-Dec-30 03:48N 49°36' W 004°01'  
Track history (hours):
 
Tides and Currents Weather Stations Pressure Air Temp Water Temp Dewpoint Dewpoint Depression Visibility Wind Speed Wind Dir Waves Ship Positions

Ridgebury Captain Dr

Last reported at 2018-Jan-09 00:18 UTC. Time now 2018-Jan-22 20:30 UTC.
Position N 08°11' W 016°56'.
Warning: this ship's position is 13 days out of date.

Length 284 m; draft 9.3 m.

Type: Ship. MMSI: 538005588.

Date/timePositionNaut miles runAvg speedWind from/ knotsBaromVisibWave heightAir tempDewpointWater temp
2018-Jan-09 00:18N 08°11' W 016°56'3114.0
2018-Jan-08 22:05N 08°32' W 017°19'214.0
2018-Jan-08 21:56N 08°33' W 017°21'3213.8
2018-Jan-08 19:36N 08°54' W 017°46'313.4
2018-Jan-08 19:23N 08°56' W 017°48'512.9
2018-Jan-08 19:00N 09°00' W 017°51'1213.9
2018-Jan-08 18:09N 09°11' W 017°56'413.9
2018-Jan-08 17:54N 09°14' W 017°57'613.9
2018-Jan-08 17:30N 09°19' W 017°59'713.6
2018-Jan-08 17:00N 09°25' W 018°02'2613.9
2018-Jan-08 15:07N 09°50' W 018°13'413.9
2018-Jan-08 14:51N 09°53' W 018°14'513.8
2018-Jan-08 14:30N 09°57' W 018°16'1913.8
2018-Jan-08 13:07N 10°15' W 018°24'413.4
2018-Jan-08 12:50N 10°18' W 018°25'  
2018-Jan-05 08:43N 27°07' W 015°31'414.4
2018-Jan-05 08:28N 27°10' W 015°28'2114.5
2018-Jan-05 07:03N 27°27' W 015°16'114.8
2018-Jan-05 07:00N 27°27' W 015°16'714.9
2018-Jan-05 06:30N 27°34' W 015°13'714.4
2018-Jan-05 06:00N 27°41' W 015°10'714.3
2018-Jan-05 05:31N 27°48' W 015°08'714.8
2018-Jan-05 05:01N 27°55' W 015°05'714.6
2018-Jan-05 04:31N 28°02' W 015°02'714.4
2018-Jan-05 04:01N 28°09' W 014°60'714.3
2018-Jan-05 03:30N 28°16' W 014°57'713.8
2018-Jan-05 03:00N 28°22' W 014°55'714.2
2018-Jan-05 02:31N 28°29' W 014°54'714.7
2018-Jan-05 02:01N 28°36' W 014°53'714.4
2018-Jan-05 01:30N 28°44' W 014°52'714.4
2018-Jan-05 01:01N 28°51' W 014°51'714.2
2018-Jan-05 00:31N 28°58' W 014°51'714.2
2018-Jan-05 00:00N 29°05' W 014°50'714.3
2018-Jan-04 23:30N 29°12' W 014°49'714.5
2018-Jan-04 23:01N 29°19' W 014°48'714.5
2018-Jan-04 22:30N 29°27' W 014°47'30914.2
2018-Jan-04 00:45N 34°25' W 013°14'414.1
2018-Jan-04 00:30N 34°28' W 013°13'714.3
2018-Jan-04 00:00N 34°35' W 013°10'914.2
2018-Jan-03 23:23N 34°43' W 013°07'  
2017-Dec-30 09:49N 49°19' W 004°44'2 5.4
2017-Dec-30 09:25N 49°20' W 004°41'3 5.6
2017-Dec-30 08:56N 49°22' W 004°37'6 5.9
2017-Dec-30 07:59N 49°25' W 004°30'3 6.4
2017-Dec-30 07:29N 49°26' W 004°25'3 6.2
2017-Dec-30 06:59N 49°28' W 004°21'16 4.9
2017-Dec-30 03:48N 49°36' W 004°01'  

Dump ship's entire track history